sensor_id;sensor_type;location;lat;lon;timestamp;pressure;altitude;pressure_sealevel;temperature;humidity
45789;BME280;31492;54.856;26.318;2023-03-26T00:03:37;1006.5;;;9.1;71.2
45789;BME280;31492;54.856;26.318;2023-03-26T00:08:59;1006.4;;;9.1;71.5
45789;BME280;31492;54.856;26.318;2023-03-26T00:13:59;1006.4;;;9.1;71.6
45789;BME280;31492;54.856;26.318;2023-03-26T00:18:37;1006.4;;;9.1;71.6
45789;BME280;31492;54.856;26.318;2023-03-26T00:23:37;1006.4;;;9.1;71.3
45789;BME280;31492;54.856;26.318;2023-03-26T00:28:47;1006.4;;;9;71.6
45789;BME280;31492;54.856;26.318;2023-03-26T00:33:47;1006.3;;;9;71.6
45789;BME280;31492;54.856;26.318;2023-03-26T00:38:37;1006.3;;;9.1;71.4
45789;BME280;31492;54.856;26.318;2023-03-26T00:43:37;1006.3;;;9.1;71.3
45789;BME280;31492;54.856;26.318;2023-03-26T00:48:37;1006.3;;;9;71.3
45789;BME280;31492;54.856;26.318;2023-03-26T00:53:49;1006.3;;;9;71.5
45789;BME280;31492;54.856;26.318;2023-03-26T00:58:37;1006.3;;;9;71.9
45789;BME280;31492;54.856;26.318;2023-03-26T01:04:18;1006.3;;;9;71.8
45789;BME280;31492;54.856;26.318;2023-03-26T01:08:38;1006.2;;;9;71.5
45789;BME280;31492;54.856;26.318;2023-03-26T01:13:37;1006.2;;;9;71.8
45789;BME280;31492;54.856;26.318;2023-03-26T01:18:45;1006.2;;;8.9;72.3
45789;BME280;31492;54.856;26.318;2023-03-26T01:24:15;1006.2;;;9;72
45789;BME280;31492;54.856;26.318;2023-03-26T01:29:00;1006.3;;;9;71.8
45789;BME280;31492;54.856;26.318;2023-03-26T01:33:38;1006.2;;;8.9;72.3
45789;BME280;31492;54.856;26.318;2023-03-26T01:38:48;1006.2;;;8.9;72.4
45789;BME280;31492;54.856;26.318;2023-03-26T01:43:37;1006.2;;;9;72.2
45789;BME280;31492;54.856;26.318;2023-03-26T01:48:49;1006.2;;;9;72.2
45789;BME280;31492;54.856;26.318;2023-03-26T01:53:39;1006.2;;;9;72.3
45789;BME280;31492;54.856;26.318;2023-03-26T01:58:38;1006.2;;;9;72.3
45789;BME280;31492;54.856;26.318;2023-03-26T02:03:37;1006.2;;;9;72
45789;BME280;31492;54.856;26.318;2023-03-26T02:08:37;1006.3;;;8.9;72.3
45789;BME280;31492;54.856;26.318;2023-03-26T02:13:37;1006.3;;;8.9;72.5
45789;BME280;31492;54.856;26.318;2023-03-26T02:18:37;1006.3;;;8.9;72.4
45789;BME280;31492;54.856;26.318;2023-03-26T02:23:59;1006.3;;;8.9;72.4
45789;BME280;31492;54.856;26.318;2023-03-26T02:28:37;1006.3;;;9;72.3
45789;BME280;31492;54.856;26.318;2023-03-26T02:33:49;1006.3;;;9;72
45789;BME280;31492;54.856;26.318;2023-03-26T02:38:47;1006.2;;;9;71.9
45789;BME280;31492;54.856;26.318;2023-03-26T02:43:37;1006.2;;;9;71.9
45789;BME280;31492;54.856;26.318;2023-03-26T02:48:37;1006.2;;;9;71.7
45789;BME280;31492;54.856;26.318;2023-03-26T02:53:37;1006.2;;;9;71.6
45789;BME280;31492;54.856;26.318;2023-03-26T02:58:59;1006.1;;;9;71.6
45789;BME280;31492;54.856;26.318;2023-03-26T03:03:47;1006.1;;;9;71.5
45789;BME280;31492;54.856;26.318;2023-03-26T03:08:53;1006.1;;;9.1;71.5
45789;BME280;31492;54.856;26.318;2023-03-26T03:13:45;1006.1;;;9.1;71.5
45789;BME280;31492;54.856;26.318;2023-03-26T03:18:45;1006.2;;;9.1;71.2
45789;BME280;31492;54.856;26.318;2023-03-26T03:23:47;1006.2;;;9.2;71.2
45789;BME280;31492;54.856;26.318;2023-03-26T03:28:47;1006.3;;;9.2;71.1
45789;BME280;31492;54.856;26.318;2023-03-26T03:33:43;1006.3;;;9.2;71.2
45789;BME280;31492;54.856;26.318;2023-03-26T03:38:53;1006.3;;;9.3;71
45789;BME280;31492;54.856;26.318;2023-03-26T03:43:37;1006.4;;;9.4;70.7
45789;BME280;31492;54.856;26.318;2023-03-26T03:48:49;1006.4;;;9.4;70.7
45789;BME280;31492;54.856;26.318;2023-03-26T03:53:47;1006.3;;;9.4;70.7
45789;BME280;31492;54.856;26.318;2023-03-26T03:58:43;1006.3;;;9.4;70.7
45789;BME280;31492;54.856;26.318;2023-03-26T04:03:53;1006.3;;;9.4;70.6
45789;BME280;31492;54.856;26.318;2023-03-26T04:08:37;1006.2;;;9.4;70.5
45789;BME280;31492;54.856;26.318;2023-03-26T04:13:49;1006.1;;;9.4;70.4
45789;BME280;31492;54.856;26.318;2023-03-26T04:18:37;1006.1;;;9.4;70.4
45789;BME280;31492;54.856;26.318;2023-03-26T04:23:53;1006.1;;;9.4;70.5
45789;BME280;31492;54.856;26.318;2023-03-26T04:28:59;1006.1;;;9.4;70.3
45789;BME280;31492;54.856;26.318;2023-03-26T04:34:03;1006.1;;;9.5;70.3
45789;BME280;31492;54.856;26.318;2023-03-26T04:39:09;1006.1;;;9.5;70.3
45789;BME280;31492;54.856;26.318;2023-03-26T04:43:47;1006.1;;;9.5;70.2
45789;BME280;31492;54.856;26.318;2023-03-26T04:49:01;1006;;;9.5;70.2
45789;BME280;31492;54.856;26.318;2023-03-26T04:53:44;1006.1;;;9.5;70.2
45789;BME280;31492;54.856;26.318;2023-03-26T04:58:37;1006;;;9.6;70
45789;BME280;31492;54.856;26.318;2023-03-26T05:03:37;1006;;;9.6;70
45789;BME280;31492;54.856;26.318;2023-03-26T05:09:05;1006;;;9.6;70.2
45789;BME280;31492;54.856;26.318;2023-03-26T05:13:35;1005.9;;;9.6;70
45789;BME280;31492;54.856;26.318;2023-03-26T05:18:59;1005.9;;;9.7;70.1
45789;BME280;31492;54.856;26.318;2023-03-26T05:23:35;1006;;;9.8;70.1
45789;BME280;31492;54.856;26.318;2023-03-26T05:28:45;1006;;;9.8;70
45789;BME280;31492;54.856;26.318;2023-03-26T05:33:43;1006;;;9.9;70
45789;BME280;31492;54.856;26.318;2023-03-26T05:38:51;1006;;;10;69.8
45789;BME280;31492;54.856;26.318;2023-03-26T05:43:35;1006;;;10.1;69.6
45789;BME280;31492;54.856;26.318;2023-03-26T05:48:35;1006.1;;;10.2;68.9
45789;BME280;31492;54.856;26.318;2023-03-26T05:53:57;1006.1;;;10.2;68.8
45789;BME280;31492;54.856;26.318;2023-03-26T05:58:45;1006;;;10.3;68.7
45789;BME280;31492;54.856;26.318;2023-03-26T06:03:36;1006;;;10.4;68.3
45789;BME280;31492;54.856;26.318;2023-03-26T06:08:35;1006;;;10.5;68.1
45789;BME280;31492;54.856;26.318;2023-03-26T06:13:35;1006;;;10.5;67.7
45789;BME280;31492;54.856;26.318;2023-03-26T06:18:37;1006;;;10.5;67.7
45789;BME280;31492;54.856;26.318;2023-03-26T06:23:37;1006.1;;;10.5;67.3
45789;BME280;31492;54.856;26.318;2023-03-26T06:28:37;1006;;;10.6;67.8
45789;BME280;31492;54.856;26.318;2023-03-26T06:33:37;1006;;;10.7;67.6
45789;BME280;31492;54.856;26.318;2023-03-26T06:38:59;1006.1;;;10.7;66.6
45789;BME280;31492;54.856;26.318;2023-03-26T06:43:37;1006.1;;;10.7;67.1
45789;BME280;31492;54.856;26.318;2023-03-26T06:48:47;1006.1;;;10.8;66.7
45789;BME280;31492;54.856;26.318;2023-03-26T06:53:53;1006.1;;;10.7;66.7
45789;BME280;31492;54.856;26.318;2023-03-26T06:59:05;1006.1;;;10.9;66.3
45789;BME280;31492;54.856;26.318;2023-03-26T07:03:45;1006.1;;;11;66.1
45789;BME280;31492;54.856;26.318;2023-03-26T07:08:37;1006.1;;;11;66
45789;BME280;31492;54.856;26.318;2023-03-26T07:13:47;1006.1;;;11.2;65.9
45789;BME280;31492;54.856;26.318;2023-03-26T07:18:37;1006.1;;;11.3;65.5
45789;BME280;31492;54.856;26.318;2023-03-26T07:23:43;1006.1;;;11.3;65.3
45789;BME280;31492;54.856;26.318;2023-03-26T07:28:38;1006.1;;;11.3;65
45789;BME280;31492;54.856;26.318;2023-03-26T07:33:38;1006.1;;;11.4;64.7
45789;BME280;31492;54.856;26.318;2023-03-26T07:39:06;1006.2;;;11.4;64.4
45789;BME280;31492;54.856;26.318;2023-03-26T07:43:40;1006.2;;;11.5;64.3
45789;BME280;31492;54.856;26.318;2023-03-26T07:48:38;1006.2;;;11.6;64.3
45789;BME280;31492;54.856;26.318;2023-03-26T07:54:07;1006.2;;;11.5;63.9
45789;BME280;31492;54.856;26.318;2023-03-26T07:59:09;1006.2;;;11.6;64.3
45789;BME280;31492;54.856;26.318;2023-03-26T08:04:13;1006.2;;;11.8;63.5
45789;BME280;31492;54.856;26.318;2023-03-26T08:08:58;1006.1;;;11.8;63
45789;BME280;31492;54.856;26.318;2023-03-26T08:13:38;1006;;;11.8;62.5
45789;BME280;31492;54.856;26.318;2023-03-26T08:18:39;1006;;;12;62.7
45789;BME280;31492;54.856;26.318;2023-03-26T08:23:52;1006;;;12.3;62.1
45789;BME280;31492;54.856;26.318;2023-03-26T08:28:52;1006;;;12.3;62
45789;BME280;31492;54.856;26.318;2023-03-26T08:34:01;1006;;;12.5;61.7
45789;BME280;31492;54.856;26.318;2023-03-26T08:38:37;1005.9;;;12.4;61.2
45789;BME280;31492;54.856;26.318;2023-03-26T12:58:41;1004.3;;;14.5;49.3
45789;BME280;31492;54.856;26.318;2023-03-26T13:13:45;1004.3;;;14.6;49.3
45789;BME280;31492;54.856;26.318;2023-03-26T16:48:46;1004.3;;;14.6;48.8
45789;BME280;31492;54.856;26.318;2023-03-26T16:53:50;1004.4;;;13.3;51.5
45789;BME280;31492;54.856;26.318;2023-03-26T16:58:47;1004.9;;;10.5;59.9
45789;BME280;31492;54.856;26.318;2023-03-26T17:03:54;1004.9;;;10.4;60.8
45789;BME280;31492;54.856;26.318;2023-03-26T17:08:45;1004.9;;;10.3;61.9
45789;BME280;31492;54.856;26.318;2023-03-26T17:14:06;1005;;;10.2;62.7
45789;BME280;31492;54.856;26.318;2023-03-26T17:18:40;1005;;;10.2;63
45789;BME280;31492;54.856;26.318;2023-03-26T17:23:43;1004.9;;;10.1;63.7
45789;BME280;31492;54.856;26.318;2023-03-26T17:28:57;1004.9;;;10;63.8
45789;BME280;31492;54.856;26.318;2023-03-26T17:33:38;1004.9;;;9.9;64.3
45789;BME280;31492;54.856;26.318;2023-03-26T17:38:53;1004.9;;;9.7;65.2
45789;BME280;31492;54.856;26.318;2023-03-26T17:44:22;1004.9;;;9.6;65.6
45789;BME280;31492;54.856;26.318;2023-03-26T17:48:46;1004.9;;;9.4;66
45789;BME280;31492;54.856;26.318;2023-03-26T17:53:37;1004.9;;;9.3;66.1
45789;BME280;31492;54.856;26.318;2023-03-26T17:59:24;1004.7;;;9.3;65.8
45789;BME280;31492;54.856;26.318;2023-03-26T18:03:38;1004.7;;;9.4;65.8
45789;BME280;31492;54.856;26.318;2023-03-26T18:08:40;1004.7;;;9.4;66
45789;BME280;31492;54.856;26.318;2023-03-26T18:13:51;1004.7;;;9.5;66.2
45789;BME280;31492;54.856;26.318;2023-03-26T18:19:16;1004.7;;;9.5;66.2
45789;BME280;31492;54.856;26.318;2023-03-26T18:24:06;1004.7;;;9.5;66.3
45789;BME280;31492;54.856;26.318;2023-03-26T18:28:48;1004.7;;;9.5;66.3
45789;BME280;31492;54.856;26.318;2023-03-26T18:34:10;1004.7;;;9.5;66.7
45789;BME280;31492;54.856;26.318;2023-03-26T18:38:38;1004.6;;;9.5;66.8
45789;BME280;31492;54.856;26.318;2023-03-26T18:43:37;1004.9;;;9.5;66.5
45789;BME280;31492;54.856;26.318;2023-03-26T18:48:46;1004.9;;;9.5;66.7
45789;BME280;31492;54.856;26.318;2023-03-26T18:53:46;1004.9;;;9.4;66.7
45789;BME280;31492;54.856;26.318;2023-03-26T18:58:50;1004.9;;;9.3;66.8
45789;BME280;31492;54.856;26.318;2023-03-26T19:03:46;1004.9;;;9.2;67.4
45789;BME280;31492;54.856;26.318;2023-03-26T19:08:46;1004.8;;;9.2;67.6
45789;BME280;31492;54.856;26.318;2023-03-26T19:14:24;1004.8;;;9.2;67.4
45789;BME280;31492;54.856;26.318;2023-03-26T19:18:38;1004.8;;;9.3;67.4
45789;BME280;31492;54.856;26.318;2023-03-26T19:24:06;1004.8;;;9.3;67.7
45789;BME280;31492;54.856;26.318;2023-03-26T19:28:38;1004.8;;;9.2;68.2
45789;BME280;31492;54.856;26.318;2023-03-26T19:33:55;1004.7;;;9;68.6
45789;BME280;31492;54.856;26.318;2023-03-26T19:39:02;1004.7;;;9;68.8
45789;BME280;31492;54.856;26.318;2023-03-26T19:43:46;1004.7;;;8.9;69
45789;BME280;31492;54.856;26.318;2023-03-26T19:48:38;1004.7;;;8.9;69.2
45789;BME280;31492;54.856;26.318;2023-03-26T19:53:38;1004.7;;;8.9;68.8
45789;BME280;31492;54.856;26.318;2023-03-26T19:58:54;1004.6;;;9;68.7
45789;BME280;31492;54.856;26.318;2023-03-26T20:03:38;1004.6;;;8.9;69
45789;BME280;31492;54.856;26.318;2023-03-26T20:08:46;1004.6;;;8.9;68.8
45789;BME280;31492;54.856;26.318;2023-03-26T20:13:38;1004.5;;;8.8;68.9
45789;BME280;31492;54.856;26.318;2023-03-26T20:19:04;1004.5;;;8.8;68.8
45789;BME280;31492;54.856;26.318;2023-03-26T20:23:38;1004.5;;;8.8;69.1
45789;BME280;31492;54.856;26.318;2023-03-26T20:28:38;1004.5;;;8.8;69.5
45789;BME280;31492;54.856;26.318;2023-03-26T20:34:02;1004.5;;;8.7;69.7
45789;BME280;31492;54.856;26.318;2023-03-26T20:38:50;1004.5;;;8.7;69.9
45789;BME280;31492;54.856;26.318;2023-03-26T20:43:46;1004.5;;;8.6;69.9
45789;BME280;31492;54.856;26.318;2023-03-26T20:48:54;1004.5;;;8.6;70
45789;BME280;31492;54.856;26.318;2023-03-26T20:53:44;1004.5;;;8.6;70.1
45789;BME280;31492;54.856;26.318;2023-03-26T20:58:54;1004.6;;;8.6;70.3
45789;BME280;31492;54.856;26.318;2023-03-26T21:03:38;1004.6;;;8.5;70.5
45789;BME280;31492;54.856;26.318;2023-03-26T21:08:38;1004.6;;;8.5;70.7
45789;BME280;31492;54.856;26.318;2023-03-26T21:14:02;1004.6;;;8.5;70.9
45789;BME280;31492;54.856;26.318;2023-03-26T21:18:38;1004.5;;;8.5;70.9
45789;BME280;31492;54.856;26.318;2023-03-26T21:23:38;1004.5;;;8.4;71.2
45789;BME280;31492;54.856;26.318;2023-03-26T21:28:50;1004.5;;;8.4;71.2
45789;BME280;31492;54.856;26.318;2023-03-26T21:33:50;1004.5;;;8.4;71.2
45789;BME280;31492;54.856;26.318;2023-03-26T21:38:38;1004.5;;;8.4;71.1
45789;BME280;31492;54.856;26.318;2023-03-26T21:43:38;1004.5;;;8.5;71.2
45789;BME280;31492;54.856;26.318;2023-03-26T21:48:38;1004.5;;;8.5;71.1
45789;BME280;31492;54.856;26.318;2023-03-26T21:53:50;1004.5;;;8.6;70.9
45789;BME280;31492;54.856;26.318;2023-03-26T21:58:40;1004.5;;;8.6;70.9
45789;BME280;31492;54.856;26.318;2023-03-26T22:03:49;1004.5;;;8.6;70.9
45789;BME280;31492;54.856;26.318;2023-03-26T22:08:38;1004.5;;;8.7;70.8
45789;BME280;31492;54.856;26.318;2023-03-26T22:13:38;1004.5;;;8.7;70.7
45789;BME280;31492;54.856;26.318;2023-03-26T22:19:06;1004.5;;;8.6;70.8
45789;BME280;31492;54.856;26.318;2023-03-26T22:23:38;1004.4;;;8.6;70.9
45789;BME280;31492;54.856;26.318;2023-03-26T22:28:38;1004.4;;;8.6;70.7
45789;BME280;31492;54.856;26.318;2023-03-26T22:33:58;1004.4;;;8.7;70.5
45789;BME280;31492;54.856;26.318;2023-03-26T22:38:38;1004.4;;;8.7;70.6
45789;BME280;31492;54.856;26.318;2023-03-26T22:43:38;1004.5;;;8.7;70.7
45789;BME280;31492;54.856;26.318;2023-03-26T22:48:46;1004.4;;;8.7;70.7
45789;BME280;31492;54.856;26.318;2023-03-26T22:54:02;1004.4;;;8.6;70.9
45789;BME280;31492;54.856;26.318;2023-03-26T22:58:38;1004.4;;;8.6;70.9
45789;BME280;31492;54.856;26.318;2023-03-26T23:03:38;1004.4;;;8.6;71
45789;BME280;31492;54.856;26.318;2023-03-26T23:08:48;1004.4;;;8.6;71.1
45789;BME280;31492;54.856;26.318;2023-03-26T23:13:38;1004.4;;;8.5;71.2
45789;BME280;31492;54.856;26.318;2023-03-26T23:19:12;1004.4;;;8.6;70.9
45789;BME280;31492;54.856;26.318;2023-03-26T23:23:38;1004.4;;;8.7;70.8
45789;BME280;31492;54.856;26.318;2023-03-26T23:28:54;1004.4;;;8.6;70.9
45789;BME280;31492;54.856;26.318;2023-03-26T23:33:38;1004.4;;;8.6;70.9
45789;BME280;31492;54.856;26.318;2023-03-26T23:38:52;1004.4;;;8.5;70.8
45789;BME280;31492;54.856;26.318;2023-03-26T23:44:02;1004.4;;;8.4;70.7
45789;BME280;31492;54.856;26.318;2023-03-26T23:48:44;1004.4;;;8.3;70.5
45789;BME280;31492;54.856;26.318;2023-03-26T23:53:38;1004.4;;;8.3;70.6
45789;BME280;31492;54.856;26.318;2023-03-26T23:58:38;1004.4;;;8.3;70.7
